Ashland, Maine
Current Conditions -  °F | °C
As of 11:15 AM on Monday 26 Jan 2015 (Local Time) from KPQI Reporting Station
Clear Clear  
Wind Chill: -8°   Ceiling: Unl
Heat Index:   Visibility: 10mi
Dew Point: -13°   Wind: 6mph
Humidity: 47%   Direction: 320°NW
Pressure: 30.18"   Gusts: NA
Location:  46.63°N, 68.41°W
Report Text: KPQI 261615Z AUTO 32005KT 10SM CLR M16/M25 A3018 RMK AO1
Loading
Personal Weather Stations






























Interactive Weather Map New forecast layout! Learn more

10-Day Weather Forecast

Advertisements
Track Severe Weather on mobile